sensor_id;sensor_type;location;lat;lon;timestamp;P1;durP1;ratioP1;P2;durP2;ratioP2
3267;SDS011;1646;52.450;13.326;2022-08-19T00:03:34;12.67;;;11.47;;
3267;SDS011;1646;52.450;13.326;2022-08-19T00:08:32;14.73;;;11.20;;
3267;SDS011;1646;52.450;13.326;2022-08-19T00:13:30;12.93;;;11.83;;
3267;SDS011;1646;52.450;13.326;2022-08-19T00:18:29;11.80;;;10.70;;
3267;SDS011;1646;52.450;13.326;2022-08-19T00:23:29;13.30;;;11.90;;
3267;SDS011;1646;52.450;13.326;2022-08-19T00:28:30;12.70;;;11.40;;
3267;SDS011;1646;52.450;13.326;2022-08-19T00:33:31;14.00;;;12.30;;
3267;SDS011;1646;52.450;13.326;2022-08-19T00:38:31;12.47;;;11.30;;
3267;SDS011;1646;52.450;13.326;2022-08-19T00:43:33;13.20;;;11.87;;
3267;SDS011;1646;52.450;13.326;2022-08-19T00:48:31;15.67;;;12.20;;
3267;SDS011;1646;52.450;13.326;2022-08-19T00:53:31;12.60;;;11.40;;
3267;SDS011;1646;52.450;13.326;2022-08-19T00:58:31;11.10;;;10.00;;
3267;SDS011;1646;52.450;13.326;2022-08-19T01:03:31;13.33;;;10.77;;
3267;SDS011;1646;52.450;13.326;2022-08-19T01:08:51;11.17;;;10.20;;
3267;SDS011;1646;52.450;13.326;2022-08-19T01:13:49;13.40;;;12.00;;
3267;SDS011;1646;52.450;13.326;2022-08-19T01:18:49;11.83;;;10.67;;
3267;SDS011;1646;52.450;13.326;2022-08-19T01:23:49;12.80;;;11.63;;
3267;SDS011;1646;52.450;13.326;2022-08-19T01:28:48;12.83;;;10.60;;
3267;SDS011;1646;52.450;13.326;2022-08-19T01:33:49;12.10;;;10.90;;
3267;SDS011;1646;52.450;13.326;2022-08-19T01:38:51;13.53;;;11.93;;
3267;SDS011;1646;52.450;13.326;2022-08-19T01:43:50;12.53;;;11.30;;
3267;SDS011;1646;52.450;13.326;2022-08-19T01:49:10;15.43;;;11.90;;
3267;SDS011;1646;52.450;13.326;2022-08-19T01:54:10;15.53;;;12.20;;
3267;SDS011;1646;52.450;13.326;2022-08-19T01:59:23;13.73;;;12.43;;
3267;SDS011;1646;52.450;13.326;2022-08-19T02:04:21;13.37;;;12.10;;
3267;SDS011;1646;52.450;13.326;2022-08-19T02:09:23;13.63;;;12.20;;
3267;SDS011;1646;52.450;13.326;2022-08-19T02:14:21;14.30;;;11.30;;
3267;SDS011;1646;52.450;13.326;2022-08-19T02:19:19;13.17;;;11.70;;
3267;SDS011;1646;52.450;13.326;2022-08-19T02:24:17;13.63;;;12.10;;
3267;SDS011;1646;52.450;13.326;2022-08-19T02:29:16;10.60;;;9.70;;
3267;SDS011;1646;52.450;13.326;2022-08-19T02:34:14;12.87;;;10.10;;
3267;SDS011;1646;52.450;13.326;2022-08-19T02:39:13;10.80;;;9.80;;
3267;SDS011;1646;52.450;13.326;2022-08-19T02:44:11;11.07;;;9.80;;
3267;SDS011;1646;52.450;13.326;2022-08-19T02:49:28;11.70;;;10.70;;
3267;SDS011;1646;52.450;13.326;2022-08-19T02:54:30;12.30;;;11.00;;
3267;SDS011;1646;52.450;13.326;2022-08-19T02:59:29;13.33;;;10.87;;
3267;SDS011;1646;52.450;13.326;2022-08-19T03:04:29;13.60;;;12.30;;
3267;SDS011;1646;52.450;13.326;2022-08-19T03:09:27;13.37;;;11.97;;
3267;SDS011;1646;52.450;13.326;2022-08-19T03:14:26;11.50;;;10.40;;
3267;SDS011;1646;52.450;13.326;2022-08-19T03:19:28;12.23;;;11.20;;
3267;SDS011;1646;52.450;13.326;2022-08-19T03:24:27;13.63;;;12.40;;
3267;SDS011;1646;52.450;13.326;2022-08-19T03:29:27;13.20;;;11.90;;
3267;SDS011;1646;52.450;13.326;2022-08-19T03:34:30;12.47;;;11.37;;
3267;SDS011;1646;52.450;13.326;2022-08-19T03:39:30;13.40;;;12.20;;
3267;SDS011;1646;52.450;13.326;2022-08-19T03:44:28;14.13;;;12.77;;
3267;SDS011;1646;52.450;13.326;2022-08-19T03:49:31;13.67;;;12.27;;
3267;SDS011;1646;52.450;13.326;2022-08-19T03:54:32;13.10;;;11.80;;
3267;SDS011;1646;52.450;13.326;2022-08-19T03:59:31;14.27;;;12.97;;
3267;SDS011;1646;52.450;13.326;2022-08-19T04:04:32;13.90;;;12.70;;
3267;SDS011;1646;52.450;13.326;2022-08-19T04:09:31;12.87;;;11.77;;
3267;SDS011;1646;52.450;13.326;2022-08-19T04:14:32;15.03;;;12.20;;
3267;SDS011;1646;52.450;13.326;2022-08-19T04:19:33;12.23;;;11.13;;
3267;SDS011;1646;52.450;13.326;2022-08-19T04:24:32;12.93;;;11.67;;
3267;SDS011;1646;52.450;13.326;2022-08-19T04:29:31;12.13;;;11.03;;
3267;SDS011;1646;52.450;13.326;2022-08-19T04:34:30;12.37;;;11.33;;
3267;SDS011;1646;52.450;13.326;2022-08-19T04:39:30;10.93;;;9.93;;
3267;SDS011;1646;52.450;13.326;2022-08-19T04:44:46;11.47;;;10.57;;
3267;SDS011;1646;52.450;13.326;2022-08-19T04:49:44;11.97;;;10.97;;
3267;SDS011;1646;52.450;13.326;2022-08-19T04:54:43;13.30;;;11.90;;
3267;SDS011;1646;52.450;13.326;2022-08-19T04:59:42;12.17;;;11.17;;
3267;SDS011;1646;52.450;13.326;2022-08-19T05:04:40;12.20;;;11.00;;
3267;SDS011;1646;52.450;13.326;2022-08-19T05:09:38;11.43;;;10.43;;
3267;SDS011;1646;52.450;13.326;2022-08-19T05:14:55;10.70;;;9.80;;
3267;SDS011;1646;52.450;13.326;2022-08-19T05:19:54;11.20;;;10.30;;
3267;SDS011;1646;52.450;13.326;2022-08-19T05:25:11;12.70;;;11.47;;
3267;SDS011;1646;52.450;13.326;2022-08-19T05:30:13;10.30;;;9.50;;
3267;SDS011;1646;52.450;13.326;2022-08-19T05:35:11;12.00;;;10.90;;
3267;SDS011;1646;52.450;13.326;2022-08-19T05:40:09;13.00;;;11.43;;
3267;SDS011;1646;52.450;13.326;2022-08-19T05:45:08;13.00;;;11.90;;
3267;SDS011;1646;52.450;13.326;2022-08-19T05:50:10;12.23;;;11.23;;
3267;SDS011;1646;52.450;13.326;2022-08-19T05:55:08;13.13;;;11.83;;
3267;SDS011;1646;52.450;13.326;2022-08-19T06:00:07;12.97;;;11.87;;
3267;SDS011;1646;52.450;13.326;2022-08-19T06:05:07;14.90;;;11.20;;
3267;SDS011;1646;52.450;13.326;2022-08-19T06:10:09;11.50;;;10.50;;
3267;SDS011;1646;52.450;13.326;2022-08-19T06:15:09;13.07;;;11.87;;
3267;SDS011;1646;52.450;13.326;2022-08-19T06:20:11;14.57;;;12.97;;
3267;SDS011;1646;52.450;13.326;2022-08-19T06:25:11;13.77;;;12.47;;
3267;SDS011;1646;52.450;13.326;2022-08-19T06:30:10;13.93;;;12.63;;
3267;SDS011;1646;52.450;13.326;2022-08-19T06:35:11;13.20;;;11.90;;
3267;SDS011;1646;52.450;13.326;2022-08-19T06:40:11;13.47;;;12.10;;
3267;SDS011;1646;52.450;13.326;2022-08-19T06:45:09;14.23;;;12.73;;
3267;SDS011;1646;52.450;13.326;2022-08-19T06:50:07;14.33;;;12.80;;
3267;SDS011;1646;52.450;13.326;2022-08-19T06:55:07;12.20;;;11.10;;
3267;SDS011;1646;52.450;13.326;2022-08-19T07:00:06;13.77;;;12.40;;
3267;SDS011;1646;52.450;13.326;2022-08-19T07:05:08;13.03;;;11.63;;
3267;SDS011;1646;52.450;13.326;2022-08-19T07:10:10;14.13;;;12.90;;
3267;SDS011;1646;52.450;13.326;2022-08-19T07:15:09;14.93;;;13.37;;
3267;SDS011;1646;52.450;13.326;2022-08-19T07:20:07;15.27;;;13.67;;
3267;SDS011;1646;52.450;13.326;2022-08-19T07:25:06;14.70;;;13.20;;
3267;SDS011;1646;52.450;13.326;2022-08-19T07:30:08;15.77;;;14.20;;
3267;SDS011;1646;52.450;13.326;2022-08-19T07:35:09;17.43;;;15.73;;
3267;SDS011;1646;52.450;13.326;2022-08-19T07:40:07;18.23;;;15.17;;
3267;SDS011;1646;52.450;13.326;2022-08-19T07:45:08;13.67;;;12.30;;
3267;SDS011;1646;52.450;13.326;2022-08-19T07:50:08;16.43;;;13.50;;
3267;SDS011;1646;52.450;13.326;2022-08-19T07:55:08;17.33;;;15.63;;
3267;SDS011;1646;52.450;13.326;2022-08-19T08:00:28;15.47;;;14.17;;
3267;SDS011;1646;52.450;13.326;2022-08-19T08:05:26;16.40;;;14.80;;
3267;SDS011;1646;52.450;13.326;2022-08-19T08:10:42;15.40;;;14.00;;
3267;SDS011;1646;52.450;13.326;2022-08-19T08:15:53;17.73;;;15.30;;
3267;SDS011;1646;52.450;13.326;2022-08-19T08:20:51;17.10;;;15.60;;
3267;SDS011;1646;52.450;13.326;2022-08-19T08:25:50;18.30;;;16.20;;
3267;SDS011;1646;52.450;13.326;2022-08-19T08:30:49;16.17;;;14.40;;
3267;SDS011;1646;52.450;13.326;2022-08-19T08:35:49;17.43;;;15.73;;
3267;SDS011;1646;52.450;13.326;2022-08-19T08:40:49;18.47;;;16.50;;
3267;SDS011;1646;52.450;13.326;2022-08-19T08:45:54;18.53;;;16.67;;
3267;SDS011;1646;52.450;13.326;2022-08-19T08:50:57;19.40;;;17.60;;
3267;SDS011;1646;52.450;13.326;2022-08-19T08:56:00;26.53;;;17.90;;
3267;SDS011;1646;52.450;13.326;2022-08-19T09:01:01;20.10;;;17.90;;
3267;SDS011;1646;52.450;13.326;2022-08-19T09:06:02;19.27;;;17.27;;
3267;SDS011;1646;52.450;13.326;2022-08-19T09:11:08;17.90;;;16.03;;
3267;SDS011;1646;52.450;13.326;2022-08-19T09:16:29;18.53;;;16.73;;
3267;SDS011;1646;52.450;13.326;2022-08-19T09:21:29;18.47;;;16.80;;
3267;SDS011;1646;52.450;13.326;2022-08-19T09:26:29;16.40;;;14.90;;
3267;SDS011;1646;52.450;13.326;2022-08-19T09:31:47;18.37;;;16.47;;
3267;SDS011;1646;52.450;13.326;2022-08-19T09:36:47;17.53;;;15.93;;
3267;SDS011;1646;52.450;13.326;2022-08-19T09:41:50;16.87;;;15.27;;
3267;SDS011;1646;52.450;13.326;2022-08-19T09:46:49;16.00;;;14.40;;
3267;SDS011;1646;52.450;13.326;2022-08-19T09:51:50;15.30;;;14.00;;
3267;SDS011;1646;52.450;13.326;2022-08-19T09:56:52;17.97;;;15.60;;
3267;SDS011;1646;52.450;13.326;2022-08-19T10:01:50;15.93;;;14.30;;
3267;SDS011;1646;52.450;13.326;2022-08-19T10:06:50;16.90;;;15.20;;
3267;SDS011;1646;52.450;13.326;2022-08-19T10:11:50;16.07;;;14.57;;
3267;SDS011;1646;52.450;13.326;2022-08-19T10:16:50;16.60;;;14.90;;
3267;SDS011;1646;52.450;13.326;2022-08-19T10:21:49;15.17;;;13.67;;
3267;SDS011;1646;52.450;13.326;2022-08-19T10:26:48;15.60;;;14.20;;
3267;SDS011;1646;52.450;13.326;2022-08-19T10:31:54;15.23;;;13.90;;
3267;SDS011;1646;52.450;13.326;2022-08-19T10:36:59;15.90;;;14.40;;
3267;SDS011;1646;52.450;13.326;2022-08-19T10:41:57;15.93;;;14.30;;
3267;SDS011;1646;52.450;13.326;2022-08-19T10:46:56;14.23;;;12.90;;
3267;SDS011;1646;52.450;13.326;2022-08-19T10:51:55;14.97;;;13.63;;
3267;SDS011;1646;52.450;13.326;2022-08-19T10:57:19;15.40;;;13.47;;
3267;SDS011;1646;52.450;13.326;2022-08-19T11:02:32;14.93;;;13.53;;
3267;SDS011;1646;52.450;13.326;2022-08-19T11:07:30;14.97;;;13.40;;
3267;SDS011;1646;52.450;13.326;2022-08-19T11:12:29;14.40;;;12.90;;
3267;SDS011;1646;52.450;13.326;2022-08-19T11:17:28;14.80;;;13.50;;
3267;SDS011;1646;52.450;13.326;2022-08-19T11:22:27;14.87;;;13.47;;
3267;SDS011;1646;52.450;13.326;2022-08-19T11:27:38;18.20;;;13.23;;
3267;SDS011;1646;52.450;13.326;2022-08-19T11:32:39;15.20;;;13.67;;
3267;SDS011;1646;52.450;13.326;2022-08-19T11:37:43;12.57;;;11.40;;
3267;SDS011;1646;52.450;13.326;2022-08-19T11:42:43;13.50;;;12.33;;
3267;SDS011;1646;52.450;13.326;2022-08-19T11:47:53;12.40;;;11.20;;
3267;SDS011;1646;52.450;13.326;2022-08-19T11:52:53;14.30;;;11.90;;
3267;SDS011;1646;52.450;13.326;2022-08-19T11:57:53;12.50;;;11.27;;
3267;SDS011;1646;52.450;13.326;2022-08-19T12:02:51;10.67;;;9.67;;
3267;SDS011;1646;52.450;13.326;2022-08-19T12:07:51;11.47;;;10.43;;
3267;SDS011;1646;52.450;13.326;2022-08-19T12:12:50;10.63;;;9.63;;
3267;SDS011;1646;52.450;13.326;2022-08-19T12:17:56;11.40;;;10.30;;
3267;SDS011;1646;52.450;13.326;2022-08-19T12:22:54;11.30;;;10.20;;
3267;SDS011;1646;52.450;13.326;2022-08-19T12:27:53;11.10;;;9.80;;
3267;SDS011;1646;52.450;13.326;2022-08-19T12:32:53;10.23;;;9.40;;
3267;SDS011;1646;52.450;13.326;2022-08-19T12:37:54;10.07;;;8.97;;
3267;SDS011;1646;52.450;13.326;2022-08-19T12:42:53;9.10;;;8.27;;
3267;SDS011;1646;52.450;13.326;2022-08-19T12:47:51;10.40;;;9.50;;
3267;SDS011;1646;52.450;13.326;2022-08-19T12:52:50;9.43;;;8.53;;
3267;SDS011;1646;52.450;13.326;2022-08-19T12:57:50;9.73;;;8.60;;
3267;SDS011;1646;52.450;13.326;2022-08-19T13:02:50;9.23;;;8.43;;
3267;SDS011;1646;52.450;13.326;2022-08-19T13:07:49;10.20;;;9.10;;
3267;SDS011;1646;52.450;13.326;2022-08-19T13:12:53;9.93;;;8.93;;
3267;SDS011;1646;52.450;13.326;2022-08-19T13:17:53;9.47;;;8.67;;
3267;SDS011;1646;52.450;13.326;2022-08-19T13:22:53;10.57;;;9.73;;
3267;SDS011;1646;52.450;13.326;2022-08-19T13:27:54;10.70;;;9.47;;
3267;SDS011;1646;52.450;13.326;2022-08-19T13:32:52;9.83;;;9.00;;
3267;SDS011;1646;52.450;13.326;2022-08-19T13:38:11;10.70;;;9.80;;
3267;SDS011;1646;52.450;13.326;2022-08-19T13:43:13;12.90;;;11.60;;
3267;SDS011;1646;52.450;13.326;2022-08-19T13:48:18;12.70;;;11.40;;
3267;SDS011;1646;52.450;13.326;2022-08-19T13:53:16;11.00;;;10.10;;
3267;SDS011;1646;52.450;13.326;2022-08-19T13:58:16;11.30;;;10.30;;
3267;SDS011;1646;52.450;13.326;2022-08-19T14:03:14;14.20;;;9.40;;
3267;SDS011;1646;52.450;13.326;2022-08-19T14:08:12;10.87;;;9.93;;
3267;SDS011;1646;52.450;13.326;2022-08-19T14:13:12;11.70;;;10.60;;
3267;SDS011;1646;52.450;13.326;2022-08-19T14:18:13;13.73;;;10.80;;
3267;SDS011;1646;52.450;13.326;2022-08-19T14:23:12;11.17;;;10.07;;
3267;SDS011;1646;52.450;13.326;2022-08-19T14:28:10;11.30;;;10.20;;
3267;SDS011;1646;52.450;13.326;2022-08-19T14:33:08;12.10;;;10.40;;
3267;SDS011;1646;52.450;13.326;2022-08-19T14:38:14;12.63;;;11.23;;
3267;SDS011;1646;52.450;13.326;2022-08-19T14:43:19;12.00;;;10.60;;
3267;SDS011;1646;52.450;13.326;2022-08-19T14:48:18;11.20;;;9.90;;
3267;SDS011;1646;52.450;13.326;2022-08-19T14:53:25;11.00;;;9.90;;
3267;SDS011;1646;52.450;13.326;2022-08-19T14:58:23;10.40;;;9.40;;
3267;SDS011;1646;52.450;13.326;2022-08-19T15:03:25;11.17;;;10.10;;
3267;SDS011;1646;52.450;13.326;2022-08-19T15:08:23;11.90;;;10.63;;
3267;SDS011;1646;52.450;13.326;2022-08-19T15:13:24;10.47;;;9.57;;
3267;SDS011;1646;52.450;13.326;2022-08-19T15:18:25;12.47;;;11.27;;
3267;SDS011;1646;52.450;13.326;2022-08-19T15:23:23;11.20;;;10.20;;
3267;SDS011;1646;52.450;13.326;2022-08-19T15:28:22;17.33;;;12.47;;
3267;SDS011;1646;52.450;13.326;2022-08-19T15:33:22;13.70;;;12.40;;
3267;SDS011;1646;52.450;13.326;2022-08-19T15:38:20;12.57;;;11.47;;
3267;SDS011;1646;52.450;13.326;2022-08-19T15:43:19;12.53;;;11.43;;
3267;SDS011;1646;52.450;13.326;2022-08-19T15:48:19;12.10;;;11.00;;
3267;SDS011;1646;52.450;13.326;2022-08-19T15:53:17;12.50;;;11.40;;
3267;SDS011;1646;52.450;13.326;2022-08-19T15:58:16;14.33;;;11.90;;
3267;SDS011;1646;52.450;13.326;2022-08-19T16:03:33;10.33;;;9.40;;
3267;SDS011;1646;52.450;13.326;2022-08-19T16:08:48;9.80;;;8.87;;
3267;SDS011;1646;52.450;13.326;2022-08-19T16:13:47;10.10;;;9.30;;
3267;SDS011;1646;52.450;13.326;2022-08-19T16:18:48;8.73;;;8.07;;
3267;SDS011;1646;52.450;13.326;2022-08-19T16:23:48;10.00;;;9.00;;
3267;SDS011;1646;52.450;13.326;2022-08-19T16:28:46;9.37;;;8.50;;
3267;SDS011;1646;52.450;13.326;2022-08-19T16:33:48;9.70;;;8.73;;
3267;SDS011;1646;52.450;13.326;2022-08-19T16:38:46;8.27;;;7.67;;
3267;SDS011;1646;52.450;13.326;2022-08-19T16:43:44;7.93;;;7.27;;
3267;SDS011;1646;52.450;13.326;2022-08-19T16:48:44;6.77;;;6.30;;
3267;SDS011;1646;52.450;13.326;2022-08-19T16:53:44;6.43;;;5.93;;
3267;SDS011;1646;52.450;13.326;2022-08-19T16:58:42;6.40;;;6.00;;
3267;SDS011;1646;52.450;13.326;2022-08-19T17:03:40;6.87;;;6.37;;
3267;SDS011;1646;52.450;13.326;2022-08-19T17:08:38;5.97;;;5.60;;
3267;SDS011;1646;52.450;13.326;2022-08-19T17:13:43;6.63;;;6.13;;
3267;SDS011;1646;52.450;13.326;2022-08-19T17:18:43;6.40;;;5.80;;
3267;SDS011;1646;52.450;13.326;2022-08-19T17:23:41;6.57;;;6.07;;
3267;SDS011;1646;52.450;13.326;2022-08-19T17:28:39;6.77;;;6.17;;
3267;SDS011;1646;52.450;13.326;2022-08-19T17:33:39;6.00;;;5.60;;
3267;SDS011;1646;52.450;13.326;2022-08-19T17:38:37;7.37;;;6.50;;
3267;SDS011;1646;52.450;13.326;2022-08-19T17:43:36;6.53;;;5.90;;
3267;SDS011;1646;52.450;13.326;2022-08-19T17:48:40;6.60;;;6.10;;
3267;SDS011;1646;52.450;13.326;2022-08-19T17:53:38;6.70;;;6.20;;
3267;SDS011;1646;52.450;13.326;2022-08-19T17:58:36;7.03;;;6.50;;
3267;SDS011;1646;52.450;13.326;2022-08-19T18:03:37;6.90;;;6.33;;
3267;SDS011;1646;52.450;13.326;2022-08-19T18:08:37;8.00;;;7.40;;
3267;SDS011;1646;52.450;13.326;2022-08-19T18:13:36;7.30;;;6.80;;
3267;SDS011;1646;52.450;13.326;2022-08-19T18:18:35;8.10;;;7.53;;
3267;SDS011;1646;52.450;13.326;2022-08-19T18:23:36;8.77;;;8.07;;
3267;SDS011;1646;52.450;13.326;2022-08-19T18:28:41;9.10;;;8.30;;
3267;SDS011;1646;52.450;13.326;2022-08-19T18:33:45;9.37;;;8.60;;
3267;SDS011;1646;52.450;13.326;2022-08-19T18:38:49;10.50;;;9.67;;
3267;SDS011;1646;52.450;13.326;2022-08-19T18:44:04;14.67;;;13.27;;
3267;SDS011;1646;52.450;13.326;2022-08-19T18:49:25;18.83;;;15.50;;
3267;SDS011;1646;52.450;13.326;2022-08-19T18:54:25;18.03;;;15.47;;
3267;SDS011;1646;52.450;13.326;2022-08-19T18:59:24;17.57;;;15.83;;
3267;SDS011;1646;52.450;13.326;2022-08-19T19:04:25;18.07;;;16.33;;
3267;SDS011;1646;52.450;13.326;2022-08-19T19:09:26;17.90;;;16.10;;
3267;SDS011;1646;52.450;13.326;2022-08-19T19:14:25;18.50;;;16.70;;
3267;SDS011;1646;52.450;13.326;2022-08-19T19:19:44;20.13;;;17.97;;
3267;SDS011;1646;52.450;13.326;2022-08-19T19:24:44;18.30;;;16.30;;
3267;SDS011;1646;52.450;13.326;2022-08-19T19:29:46;20.57;;;18.47;;
3267;SDS011;1646;52.450;13.326;2022-08-19T19:34:47;17.77;;;15.97;;
3267;SDS011;1646;52.450;13.326;2022-08-19T19:39:47;20.00;;;16.97;;
3267;SDS011;1646;52.450;13.326;2022-08-19T19:44:45;21.97;;;15.03;;
3267;SDS011;1646;52.450;13.326;2022-08-19T19:49:46;21.10;;;17.10;;
3267;SDS011;1646;52.450;13.326;2022-08-19T19:55:08;16.40;;;14.83;;
3267;SDS011;1646;52.450;13.326;2022-08-19T20:00:14;17.63;;;15.27;;
3267;SDS011;1646;52.450;13.326;2022-08-19T20:05:14;15.63;;;14.23;;
3267;SDS011;1646;52.450;13.326;2022-08-19T20:10:13;15.43;;;13.90;;
3267;SDS011;1646;52.450;13.326;2022-08-19T20:15:11;17.10;;;15.30;;
3267;SDS011;1646;52.450;13.326;2022-08-19T20:20:11;16.90;;;15.10;;
3267;SDS011;1646;52.450;13.326;2022-08-19T20:25:10;16.23;;;14.40;;
3267;SDS011;1646;52.450;13.326;2022-08-19T20:30:13;14.50;;;13.07;;
3267;SDS011;1646;52.450;13.326;2022-08-19T20:35:15;14.70;;;13.30;;
3267;SDS011;1646;52.450;13.326;2022-08-19T20:40:16;15.37;;;14.00;;
3267;SDS011;1646;52.450;13.326;2022-08-19T20:45:19;14.77;;;13.47;;
3267;SDS011;1646;52.450;13.326;2022-08-19T20:50:28;13.00;;;11.87;;
3267;SDS011;1646;52.450;13.326;2022-08-19T20:55:27;13.50;;;12.23;;
3267;SDS011;1646;52.450;13.326;2022-08-19T21:00:27;13.90;;;12.60;;
3267;SDS011;1646;52.450;13.326;2022-08-19T21:05:25;14.20;;;12.70;;
3267;SDS011;1646;52.450;13.326;2022-08-19T21:10:26;14.03;;;12.80;;
3267;SDS011;1646;52.450;13.326;2022-08-19T21:15:24;15.73;;;13.00;;
3267;SDS011;1646;52.450;13.326;2022-08-19T21:20:23;15.23;;;13.83;;
3267;SDS011;1646;52.450;13.326;2022-08-19T21:25:21;14.37;;;13.07;;
3267;SDS011;1646;52.450;13.326;2022-08-19T21:30:20;13.83;;;12.53;;
3267;SDS011;1646;52.450;13.326;2022-08-19T21:35:18;14.43;;;13.10;;
3267;SDS011;1646;52.450;13.326;2022-08-19T21:40:18;13.70;;;12.40;;
3267;SDS011;1646;52.450;13.326;2022-08-19T21:45:17;13.33;;;12.13;;
3267;SDS011;1646;52.450;13.326;2022-08-19T21:50:16;13.10;;;11.80;;
3267;SDS011;1646;52.450;13.326;2022-08-19T21:55:15;14.23;;;12.83;;
3267;SDS011;1646;52.450;13.326;2022-08-19T22:00:16;14.33;;;13.03;;
3267;SDS011;1646;52.450;13.326;2022-08-19T22:05:16;12.90;;;11.60;;
3267;SDS011;1646;52.450;13.326;2022-08-19T22:10:18;12.80;;;11.50;;
3267;SDS011;1646;52.450;13.326;2022-08-19T22:15:19;12.87;;;11.67;;
3267;SDS011;1646;52.450;13.326;2022-08-19T22:20:18;13.00;;;11.47;;
3267;SDS011;1646;52.450;13.326;2022-08-19T22:25:19;13.13;;;12.03;;
3267;SDS011;1646;52.450;13.326;2022-08-19T22:30:29;12.60;;;11.60;;
3267;SDS011;1646;52.450;13.326;2022-08-19T22:35:29;11.23;;;10.23;;
3267;SDS011;1646;52.450;13.326;2022-08-19T22:40:29;12.20;;;11.10;;
3267;SDS011;1646;52.450;13.326;2022-08-19T22:45:29;12.77;;;11.70;;
3267;SDS011;1646;52.450;13.326;2022-08-19T22:50:28;12.60;;;11.57;;
3267;SDS011;1646;52.450;13.326;2022-08-19T22:55:27;11.70;;;10.70;;
3267;SDS011;1646;52.450;13.326;2022-08-19T23:00:26;13.20;;;12.00;;
3267;SDS011;1646;52.450;13.326;2022-08-19T23:05:27;12.70;;;11.50;;
3267;SDS011;1646;52.450;13.326;2022-08-19T23:10:26;13.83;;;12.63;;
3267;SDS011;1646;52.450;13.326;2022-08-19T23:15:25;15.37;;;14.00;;
3267;SDS011;1646;52.450;13.326;2022-08-19T23:20:28;14.07;;;12.77;;
3267;SDS011;1646;52.450;13.326;2022-08-19T23:25:29;15.70;;;14.07;;
3267;SDS011;1646;52.450;13.326;2022-08-19T23:30:29;17.03;;;15.40;;
3267;SDS011;1646;52.450;13.326;2022-08-19T23:35:32;15.40;;;14.00;;
3267;SDS011;1646;52.450;13.326;2022-08-19T23:40:33;14.37;;;13.10;;
3267;SDS011;1646;52.450;13.326;2022-08-19T23:45:35;14.90;;;13.40;;
3267;SDS011;1646;52.450;13.326;2022-08-19T23:50:36;14.97;;;13.57;;
3267;SDS011;1646;52.450;13.326;2022-08-19T23:55:37;14.27;;;12.87;;
